createdAt,value
2018-01-12T05:00:45.149Z,1018.21
2018-01-12T05:01:10.662Z,1018.22
2018-01-12T05:01:36.215Z,1018.22
2018-01-12T05:02:01.761Z,1018.21
2018-01-12T05:02:27.251Z,1018.21
2018-01-12T05:02:52.746Z,1018.19
2018-01-12T05:03:18.191Z,1018.22
2018-01-12T05:03:43.664Z,1018.24
2018-01-12T05:04:09.204Z,1018.17
2018-01-12T05:04:34.709Z,1018.21
2018-01-12T05:05:00.183Z,1018.22
2018-01-12T05:06:09.067Z,1018.24
2018-01-12T05:06:34.550Z,1018.21
2018-01-12T05:07:00.026Z,1018.22
2018-01-12T05:07:25.497Z,1018.23
2018-01-12T05:07:50.987Z,1018.23
2018-01-12T05:08:16.470Z,1018.26
2018-01-12T05:08:42.007Z,1018.23
2018-01-12T05:09:07.514Z,1018.22
2018-01-12T05:09:33.028Z,1018.26
2018-01-12T05:09:58.564Z,1018.25
2018-01-12T05:10:24.034Z,1018.24
2018-01-12T05:10:49.512Z,1018.27
2018-01-12T05:11:15.017Z,1018.22
2018-01-12T05:11:40.555Z,1018.24
2018-01-12T05:12:06.086Z,1018.26
2018-01-12T05:12:31.635Z,1018.23
2018-01-12T05:12:57.080Z,1018.27
2018-01-12T05:13:22.550Z,1018.24
2018-01-12T05:13:48.089Z,1018.27
2018-01-12T05:14:13.550Z,1018.23
2018-01-12T05:14:39.098Z,1018.22
2018-01-12T05:15:04.604Z,1018.22
2018-01-12T05:15:30.094Z,1018.27
2018-01-12T05:15:55.600Z,1018.24
2018-01-12T05:16:21.076Z,1018.25
2018-01-12T05:16:46.592Z,1018.21
2018-01-12T05:17:12.083Z,1018.22
2018-01-12T05:17:37.594Z,1018.25
2018-01-12T05:18:03.115Z,1018.25
2018-01-12T05:18:28.642Z,1018.23
2018-01-12T05:18:54.104Z,1018.27
2018-01-12T05:19:19.604Z,1018.26
2018-01-12T05:19:45.090Z,1018.28
2018-01-12T05:20:10.612Z,1018.26
2018-01-12T05:20:36.095Z,1018.27
2018-01-12T05:21:01.557Z,1018.25
2018-01-12T05:21:27.076Z,1018.28
2018-01-12T05:21:52.549Z,1018.28
2018-01-12T05:22:18.042Z,1018.27
2018-01-12T05:22:43.556Z,1018.27
2018-01-12T05:23:09.043Z,1018.29
2018-01-12T05:23:34.522Z,1018.29
2018-01-12T05:24:00.044Z,1018.29
2018-01-12T05:24:25.522Z,1018.29
2018-01-12T05:24:50.995Z,1018.25
2018-01-12T05:25:16.509Z,1018.32
2018-01-12T05:25:42.026Z,1018.31
2018-01-12T05:26:07.592Z,1018.26
2018-01-12T05:26:33.080Z,1018.3
2018-01-12T05:26:58.563Z,1018.35
2018-01-12T05:27:24.063Z,1018.35
2018-01-12T05:27:49.587Z,1018.29
2018-01-12T05:28:15.012Z,1018.31
2018-01-12T05:28:40.496Z,1018.34
2018-01-12T05:29:06.006Z,1018.29
2018-01-12T05:29:31.477Z,1018.32
2018-01-12T05:29:56.948Z,1018.32
2018-01-12T05:30:22.464Z,1018.3
2018-01-12T05:30:48.016Z,1018.33
2018-01-12T05:31:46.706Z,1018.34
2018-01-12T05:32:12.206Z,1018.34
2018-01-12T05:32:37.709Z,1018.35
2018-01-12T05:33:03.202Z,1018.33
2018-01-12T05:33:28.686Z,1018.31
2018-01-12T05:33:54.216Z,1018.3
2018-01-12T05:34:19.735Z,1018.31
2018-01-12T05:34:45.226Z,1018.29
2018-01-12T05:35:10.724Z,1018.3
2018-01-12T05:35:36.211Z,1018.34
2018-01-12T05:36:01.739Z,1018.31
2018-01-12T05:36:27.243Z,1018.29
2018-01-12T05:36:52.792Z,1018.32
2018-01-12T05:37:18.257Z,1018.33
2018-01-12T05:37:43.754Z,1018.3
2018-01-12T05:38:09.247Z,1018.34
2018-01-12T05:38:34.723Z,1018.34
2018-01-12T05:39:00.192Z,1018.3
2018-01-12T05:39:25.724Z,1018.38
2018-01-12T05:39:51.199Z,1018.37
2018-01-12T05:40:16.739Z,1018.33
2018-01-12T05:41:20.479Z,1018.34
2018-01-12T05:41:45.967Z,1018.35
2018-01-12T05:42:11.435Z,1018.35
2018-01-12T05:42:36.924Z,1018.35
2018-01-12T05:43:02.453Z,1018.32
2018-01-12T05:43:27.944Z,1018.33
2018-01-12T05:43:53.428Z,1018.33
2018-01-12T05:44:18.893Z,1018.35
2018-01-12T05:44:44.379Z,1018.35
2018-01-12T05:45:09.943Z,1018.35
2018-01-12T05:45:35.502Z,1018.32
2018-01-12T05:46:00.951Z,1018.35
2018-01-12T05:46:26.430Z,1018.34
2018-01-12T05:46:51.921Z,1018.34
2018-01-12T05:47:17.386Z,1018.35
2018-01-12T05:47:42.906Z,1018.33
2018-01-12T05:48:51.631Z,1018.34
2018-01-12T05:49:17.108Z,1018.36
2018-01-12T05:49:42.591Z,1018.35
2018-01-12T05:50:08.049Z,1018.39
2018-01-12T05:50:33.544Z,1018.35
2018-01-12T05:50:59.059Z,1018.38
2018-01-12T05:51:24.566Z,1018.34
2018-01-12T05:51:50.056Z,1018.35
2018-01-12T05:52:15.627Z,1018.34
2018-01-12T05:53:19.201Z,1018.37
2018-01-12T05:53:44.691Z,1018.35
2018-01-12T05:54:10.256Z,1018.35
2018-01-12T05:54:35.776Z,1018.39
2018-01-12T05:55:01.261Z,1018.35
2018-01-12T05:55:26.750Z,1018.39
2018-01-12T05:55:52.260Z,1018.33
2018-01-12T05:56:17.740Z,1018.33
2018-01-12T05:56:43.226Z,1018.37
2018-01-12T05:57:08.700Z,1018.33
2018-01-12T05:57:34.296Z,1018.32
2018-01-12T05:57:59.772Z,1018.29
2018-01-12T05:58:25.228Z,1018.29
2018-01-12T05:58:50.721Z,1018.29
2018-01-12T05:59:16.206Z,1018.3
2018-01-12T05:59:41.714Z,1018.32
2018-01-12T06:00:07.213Z,1018.35
2018-01-12T06:00:32.700Z,1018.28
2018-01-12T06:00:58.172Z,1018.3
2018-01-12T06:01:23.677Z,1018.29
2018-01-12T06:01:49.186Z,1018.24
2018-01-12T06:02:14.690Z,1018.3
2018-01-12T06:02:40.185Z,1018.27
2018-01-12T06:03:05.675Z,1018.28
2018-01-12T06:03:31.158Z,1018.29
2018-01-12T06:03:56.650Z,1018.27
2018-01-12T06:04:22.131Z,1018.25
2018-01-12T06:04:47.589Z,1018.29
2018-01-12T06:05:13.094Z,1018.26
2018-01-12T06:05:38.615Z,1018.28
2018-01-12T06:06:04.142Z,1018.26
2018-01-12T06:06:29.650Z,1018.27
2018-01-12T06:06:55.094Z,1018.28
2018-01-12T06:07:20.631Z,1018.3
2018-01-12T06:07:46.151Z,1018.28
2018-01-12T06:08:11.850Z,1018.27
2018-01-12T06:08:37.352Z,1018.27
2018-01-12T06:09:02.815Z,1018.29
2018-01-12T06:09:28.375Z,1018.29
2018-01-12T06:09:53.843Z,1018.23
2018-01-12T06:10:19.332Z,1018.29
2018-01-12T06:10:44.832Z,1018.27
2018-01-12T06:11:10.286Z,1018.29
2018-01-12T06:11:35.778Z,1018.29
2018-01-12T06:12:01.254Z,1018.3
2018-01-12T06:12:26.756Z,1018.33
2018-01-12T06:12:52.243Z,1018.25
2018-01-12T06:13:17.740Z,1018.27
2018-01-12T06:13:43.208Z,1018.28
2018-01-12T06:14:08.710Z,1018.29
2018-01-12T06:14:34.192Z,1018.29
2018-01-12T06:14:59.715Z,1018.28
2018-01-12T06:15:25.204Z,1018.29
2018-01-12T06:16:33.899Z,1018.32
2018-01-12T06:16:59.472Z,1018.35
2018-01-12T06:17:24.968Z,1018.29
2018-01-12T06:17:50.462Z,1018.34
2018-01-12T06:18:16.010Z,1018.37
2018-01-12T06:18:41.466Z,1018.35
2018-01-12T06:19:07.058Z,1018.32
2018-01-12T06:19:32.585Z,1018.37
2018-01-12T06:19:58.137Z,1018.39
2018-01-12T06:20:23.665Z,1018.41
2018-01-12T06:20:49.132Z,1018.38
2018-01-12T06:21:14.648Z,1018.43
2018-01-12T06:21:40.127Z,1018.36
2018-01-12T06:22:05.624Z,1018.39
2018-01-12T06:22:31.092Z,1018.42
2018-01-12T06:22:56.591Z,1018.39
2018-01-12T06:23:22.110Z,1018.39
2018-01-12T06:23:47.590Z,1018.44
2018-01-12T06:24:13.071Z,1018.44
2018-01-12T06:24:38.567Z,1018.42
2018-01-12T06:25:04.067Z,1018.4
2018-01-12T06:25:29.730Z,1018.44
2018-01-12T06:25:55.219Z,1018.46
2018-01-12T06:26:20.700Z,1018.46
2018-01-12T06:26:46.171Z,1018.44
2018-01-12T06:27:11.691Z,1018.44
2018-01-12T06:27:37.211Z,1018.43
2018-01-12T06:28:02.695Z,1018.46
2018-01-12T06:28:28.122Z,1018.46
2018-01-12T06:28:53.571Z,1018.52
2018-01-12T06:29:19.074Z,1018.46
2018-01-12T06:29:44.555Z,1018.47
2018-01-12T06:30:10.078Z,1018.53
2018-01-12T06:30:35.539Z,1018.48
2018-01-12T06:31:01.037Z,1018.54
2018-01-12T06:31:26.581Z,1018.59
2018-01-12T06:31:52.079Z,1018.56
2018-01-12T06:32:17.590Z,1018.54
2018-01-12T06:32:43.076Z,1018.57
2018-01-12T06:33:08.587Z,1018.58
2018-01-12T06:33:34.118Z,1018.6
2018-01-12T06:33:59.670Z,1018.59
2018-01-12T06:34:25.149Z,1018.56
2018-01-12T06:35:33.878Z,1018.59
2018-01-12T06:35:59.374Z,1018.58
2018-01-12T06:36:24.868Z,1018.61
2018-01-12T06:36:50.371Z,1018.63
2018-01-12T06:37:15.849Z,1018.62
2018-01-12T06:38:19.448Z,1018.65
2018-01-12T06:38:44.938Z,1018.62
2018-01-12T06:39:10.429Z,1018.65
2018-01-12T06:39:35.920Z,1018.65
2018-01-12T06:40:54.530Z,1018.7
2018-01-12T06:41:20.030Z,1018.69
2018-01-12T06:41:45.528Z,1018.68
2018-01-12T06:42:11.033Z,1018.7
2018-01-12T06:42:36.519Z,1018.67
2018-01-12T06:43:02.031Z,1018.63
2018-01-12T06:43:27.524Z,1018.66
2018-01-12T06:43:53.071Z,1018.69
2018-01-12T06:44:18.549Z,1018.66
2018-01-12T06:44:44.037Z,1018.66
2018-01-12T06:45:09.507Z,1018.69
2018-01-12T06:45:34.993Z,1018.67
2018-01-12T06:46:00.484Z,1018.7
2018-01-12T06:46:26.056Z,1018.7
2018-01-12T06:46:51.561Z,1018.71
2018-01-12T06:47:17.076Z,1018.71
2018-01-12T06:47:42.568Z,1018.67
2018-01-12T06:48:51.271Z,1018.66
2018-01-12T06:49:16.772Z,1018.69
2018-01-12T06:49:42.272Z,1018.69
2018-01-12T06:50:07.844Z,1018.73
2018-01-12T06:50:33.338Z,1018.72
2018-01-12T06:50:58.876Z,1018.75
2018-01-12T06:51:24.342Z,1018.72
2018-01-12T06:51:49.837Z,1018.76
2018-01-12T06:52:15.312Z,1018.75
2018-01-12T06:53:34.261Z,1018.75
2018-01-12T06:53:59.729Z,1018.74
2018-01-12T06:54:25.220Z,1018.79
2018-01-12T06:54:50.697Z,1018.76
2018-01-12T06:55:16.194Z,1018.77
2018-01-12T06:55:41.697Z,1018.72
2018-01-12T06:56:07.171Z,1018.74
2018-01-12T06:56:32.670Z,1018.75
2018-01-12T06:56:58.156Z,1018.76
2018-01-12T06:57:23.650Z,1018.76
2018-01-12T06:58:22.187Z,1018.72
2018-01-12T06:58:47.672Z,1018.77
2018-01-12T06:59:13.156Z,1018.77
2018-01-12T06:59:38.662Z,1018.76
2018-01-12T07:00:04.172Z,1018.72
2018-01-12T07:00:29.680Z,1018.76
2018-01-12T07:00:55.186Z,1018.74
2018-01-12T07:01:20.697Z,1018.77
2018-01-12T07:01:46.176Z,1018.73
2018-01-12T07:02:11.652Z,1018.74
2018-01-12T07:02:37.159Z,1018.76
2018-01-12T07:03:02.622Z,1018.75
2018-01-12T07:03:28.102Z,1018.78
2018-01-12T07:03:53.623Z,1018.73
2018-01-12T07:04:19.114Z,1018.76
2018-01-12T07:04:44.606Z,1018.76
2018-01-12T07:05:10.118Z,1018.75
2018-01-12T07:05:35.600Z,1018.74
2018-01-12T07:06:01.109Z,1018.75
2018-01-12T07:06:26.622Z,1018.7
2018-01-12T07:06:52.106Z,1018.73
2018-01-12T07:07:17.628Z,1018.76
2018-01-12T07:07:43.102Z,1018.73
2018-01-12T07:08:08.585Z,1018.7
2018-01-12T07:09:12.210Z,1018.71
2018-01-12T07:09:37.708Z,1018.75
2018-01-12T07:10:03.200Z,1018.73
2018-01-12T07:10:28.694Z,1018.74
2018-01-12T07:10:54.163Z,1018.75
2018-01-12T07:11:19.640Z,1018.72
2018-01-12T07:11:45.091Z,1018.71
2018-01-12T07:12:10.580Z,1018.75
2018-01-12T07:12:36.130Z,1018.79
2018-01-12T07:13:01.622Z,1018.72
2018-01-12T07:13:27.109Z,1018.77
2018-01-12T07:13:52.612Z,1018.73
2018-01-12T07:14:18.103Z,1018.78
2018-01-12T07:14:43.621Z,1018.75
2018-01-12T07:15:09.143Z,1018.79
2018-01-12T07:15:34.608Z,1018.8
2018-01-12T07:16:33.125Z,1018.77
2018-01-12T07:16:58.647Z,1018.79
2018-01-12T07:17:24.135Z,1018.8
2018-01-12T07:18:37.878Z,1018.81
2018-01-12T07:19:03.403Z,1018.81
2018-01-12T07:19:28.888Z,1018.79
2018-01-12T07:20:47.854Z,1018.8
2018-01-12T07:21:13.374Z,1018.79
2018-01-12T07:21:38.889Z,1018.8
2018-01-12T07:22:04.382Z,1018.8
2018-01-12T07:22:29.840Z,1018.81
2018-01-12T07:22:55.340Z,1018.81
2018-01-12T07:23:20.810Z,1018.8
2018-01-12T07:23:46.297Z,1018.84
2018-01-12T07:24:11.758Z,1018.79
2018-01-12T07:24:37.301Z,1018.83
2018-01-12T07:25:02.758Z,1018.8
2018-01-12T07:25:28.273Z,1018.83
2018-01-12T07:25:53.738Z,1018.83
2018-01-12T07:26:19.198Z,1018.86
2018-01-12T07:26:44.677Z,1018.87
2018-01-12T07:27:10.180Z,1018.88
2018-01-12T07:27:35.670Z,1018.85
2018-01-12T07:28:01.166Z,1018.91
2018-01-12T07:28:26.656Z,1018.91
2018-01-12T07:28:52.127Z,1018.86
2018-01-12T07:29:17.650Z,1018.87
2018-01-12T07:29:43.137Z,1018.87
2018-01-12T07:30:08.613Z,1018.86
2018-01-12T07:30:34.095Z,1018.86
2018-01-12T07:31:37.868Z,1018.84
2018-01-12T07:32:03.358Z,1018.85
2018-01-12T07:32:28.868Z,1018.85
2018-01-12T07:32:54.349Z,1018.85
2018-01-12T07:33:19.828Z,1018.87
2018-01-12T07:33:45.309Z,1018.86
2018-01-12T07:34:10.837Z,1018.86
2018-01-12T07:34:36.282Z,1018.88
2018-01-12T07:35:01.801Z,1018.92
2018-01-12T07:35:27.318Z,1018.87
2018-01-12T07:35:52.829Z,1018.88
2018-01-12T07:36:18.353Z,1018.89
2018-01-12T07:36:43.829Z,1018.88
2018-01-12T07:37:09.381Z,1018.89
2018-01-12T07:37:34.872Z,1018.89
2018-01-12T07:38:00.356Z,1018.91
2018-01-12T07:38:25.900Z,1018.91
2018-01-12T07:38:51.402Z,1018.95
2018-01-12T07:39:16.874Z,1018.94
2018-01-12T07:39:42.360Z,1018.94
2018-01-12T07:40:41.044Z,1018.96
2018-01-12T07:41:06.532Z,1018.98
2018-01-12T07:41:32.032Z,1019.02
2018-01-12T07:41:57.539Z,1019.03
2018-01-12T07:42:23.022Z,1019.03
2018-01-12T07:42:48.500Z,1019.04
2018-01-12T07:43:13.953Z,1019.04
2018-01-12T07:43:39.416Z,1019.08
2018-01-12T07:44:04.950Z,1019.07
2018-01-12T07:44:30.404Z,1019.06
2018-01-12T07:44:55.899Z,1019.04
2018-01-12T07:45:21.423Z,1019.02
2018-01-12T07:45:46.900Z,1019.06
2018-01-12T07:46:12.389Z,1019.05
2018-01-12T07:46:37.896Z,1019.06
2018-01-12T07:47:03.389Z,1019.07
2018-01-12T07:47:28.880Z,1019.06
2018-01-12T07:47:54.464Z,1019.06
2018-01-12T07:48:19.934Z,1019.08
2018-01-12T07:48:45.424Z,1019.06
2018-01-12T07:49:43.504Z,1019.06
2018-01-12T07:50:09.034Z,1019.09
2018-01-12T07:50:34.517Z,1019.06
2018-01-12T07:50:59.976Z,1019.08
2018-01-12T07:51:25.490Z,1019.09
2018-01-12T07:51:51.004Z,1019.12
2018-01-12T07:53:09.974Z,1019.12
2018-01-12T07:53:35.462Z,1019.16
2018-01-12T07:54:00.941Z,1019.14
2018-01-12T07:54:26.411Z,1019.15
2018-01-12T07:54:51.926Z,1019.18
2018-01-12T07:55:17.364Z,1019.17
2018-01-12T07:55:42.868Z,1019.22
2018-01-12T07:56:08.352Z,1019.21
2018-01-12T07:56:33.808Z,1019.2
2018-01-12T07:56:59.281Z,1019.25
2018-01-12T07:57:24.794Z,1019.21
2018-01-12T07:57:50.269Z,1019.22
2018-01-12T07:58:15.776Z,1019.2
2018-01-12T07:58:41.281Z,1019.22
2018-01-12T07:59:06.763Z,1019.25
2018-01-12T07:59:32.237Z,1019.28
2018-01-12T07:59:57.729Z,1019.23
2018-01-12T08:00:23.215Z,1019.27
2018-01-12T08:00:48.708Z,1019.34
2018-01-12T08:01:14.199Z,1019.32
2018-01-12T08:01:39.714Z,1019.25
2018-01-12T08:02:05.192Z,1019.3
2018-01-12T08:02:30.668Z,1019.29
2018-01-12T08:02:56.172Z,1019.3
2018-01-12T08:03:21.662Z,1019.3
2018-01-12T08:03:47.167Z,1019.33
2018-01-12T08:04:12.685Z,1019.35
2018-01-12T08:04:38.123Z,1019.34
2018-01-12T08:05:03.629Z,1019.36
2018-01-12T08:05:29.094Z,1019.31
2018-01-12T08:05:54.636Z,1019.4
2018-01-12T08:06:20.107Z,1019.39
2018-01-12T08:07:39.032Z,1019.44
2018-01-12T08:08:04.536Z,1019.42
2018-01-12T08:08:30.033Z,1019.45
2018-01-12T08:08:55.495Z,1019.44
2018-01-12T08:10:14.383Z,1019.44
2018-01-12T08:10:39.881Z,1019.42
2018-01-12T08:11:05.379Z,1019.45
2018-01-12T08:11:30.850Z,1019.47
2018-01-12T08:11:56.362Z,1019.43
2018-01-12T08:12:21.829Z,1019.44
2018-01-12T08:13:35.623Z,1019.43
2018-01-12T08:14:01.115Z,1019.44
2018-01-12T08:14:26.604Z,1019.44
2018-01-12T08:14:52.112Z,1019.48
2018-01-12T08:15:17.578Z,1019.47
2018-01-12T08:15:43.072Z,1019.44
2018-01-12T08:16:08.549Z,1019.48
2018-01-12T08:16:34.068Z,1019.48
2018-01-12T08:16:59.588Z,1019.46
2018-01-12T08:17:25.064Z,1019.48
2018-01-12T08:17:50.573Z,1019.46
2018-01-12T08:18:16.088Z,1019.49
2018-01-12T08:19:20.015Z,1019.48
2018-01-12T08:19:45.487Z,1019.5
2018-01-12T08:20:10.988Z,1019.52
2018-01-12T08:20:36.470Z,1019.49
2018-01-12T08:21:01.951Z,1019.48
2018-01-12T08:21:27.470Z,1019.54
2018-01-12T08:21:52.942Z,1019.49
2018-01-12T08:22:18.424Z,1019.56
2018-01-12T08:22:43.874Z,1019.57
2018-01-12T08:23:09.386Z,1019.54
2018-01-12T08:23:34.892Z,1019.52
2018-01-12T08:24:00.413Z,1019.54
2018-01-12T08:25:10.271Z,1019.61
2018-01-12T08:25:35.763Z,1019.64
2018-01-12T08:26:01.265Z,1019.62
2018-01-12T08:26:26.738Z,1019.65
2018-01-12T08:26:52.199Z,1019.65
2018-01-12T08:27:17.706Z,1019.64
2018-01-12T08:27:43.214Z,1019.7
2018-01-12T08:28:08.674Z,1019.65
2018-01-12T08:28:34.168Z,1019.68
2018-01-12T08:28:59.686Z,1019.69
2018-01-12T08:29:25.200Z,1019.69
2018-01-12T08:29:50.688Z,1019.73
2018-01-12T08:30:16.179Z,1019.71
2018-01-12T08:30:41.668Z,1019.76
2018-01-12T08:31:07.159Z,1019.78
2018-01-12T08:31:32.604Z,1019.79
2018-01-12T08:31:58.068Z,1019.77
2018-01-12T08:33:06.793Z,1019.82
2018-01-12T08:33:32.297Z,1019.79
2018-01-12T08:33:57.790Z,1019.81
2018-01-12T08:34:23.286Z,1019.85
2018-01-12T08:34:48.784Z,1019.85
2018-01-12T08:35:14.291Z,1019.82
2018-01-12T08:35:39.789Z,1019.86
2018-01-12T08:36:05.288Z,1019.89
2018-01-12T08:36:30.776Z,1019.85
2018-01-12T08:36:56.284Z,1019.89
2018-01-12T08:37:21.757Z,1019.85
2018-01-12T08:37:47.249Z,1019.84
2018-01-12T08:38:12.767Z,1019.85
2018-01-12T08:38:38.230Z,1019.89
2018-01-12T08:39:03.724Z,1019.88
2018-01-12T08:39:29.194Z,1019.88
2018-01-12T08:39:54.708Z,1019.89
2018-01-12T08:40:20.186Z,1019.89
2018-01-12T08:40:45.709Z,1019.91
2018-01-12T08:41:11.174Z,1019.93
2018-01-12T08:41:36.689Z,1019.88
2018-01-12T08:42:02.216Z,1019.91
2018-01-12T08:42:27.710Z,1019.93
2018-01-12T08:42:53.193Z,1019.92
2018-01-12T08:43:18.714Z,1019.93
2018-01-12T08:43:44.211Z,1019.89
2018-01-12T08:44:09.778Z,1019.96
2018-01-12T08:44:35.284Z,1019.95
2018-01-12T08:45:00.750Z,1019.94
2018-01-12T08:45:26.258Z,1019.98
2018-01-12T08:45:51.733Z,1019.93
2018-01-12T08:46:17.249Z,1019.96
2018-01-12T08:47:31.045Z,1019.95
2018-01-12T08:47:56.531Z,1019.96
2018-01-12T08:48:22.059Z,1019.94
2018-01-12T08:48:47.553Z,1019.98
2018-01-12T08:49:13.053Z,1019.98
2018-01-12T08:49:38.542Z,1019.97
2018-01-12T08:50:04.036Z,1019.99
2018-01-12T08:50:29.499Z,1019.94
2018-01-12T08:50:54.986Z,1019.96
2018-01-12T08:51:20.468Z,1019.97
2018-01-12T08:51:45.974Z,1019.97
2018-01-12T08:52:11.440Z,1020
2018-01-12T08:52:36.918Z,1019.99
2018-01-12T08:53:02.397Z,1020
2018-01-12T08:53:27.893Z,1020.01
2018-01-12T08:53:53.384Z,1020.01
2018-01-12T08:54:18.911Z,1020.02
2018-01-12T08:54:44.420Z,1020
2018-01-12T08:55:09.892Z,1019.99
2018-01-12T08:55:35.386Z,1019.98
2018-01-12T08:56:00.851Z,1020
2018-01-12T08:56:26.350Z,1019.98
2018-01-12T08:56:51.821Z,1020.03
2018-01-12T08:58:10.787Z,1020.07
2018-01-12T08:58:36.255Z,1020.11
2018-01-12T08:59:01.760Z,1020.09
2018-01-12T08:59:27.261Z,1020.09
2018-01-12T08:59:52.785Z,1020.11
2018-01-12T09:00:18.282Z,1020.13
2018-01-12T09:00:43.739Z,1020.09
2018-01-12T09:01:09.274Z,1020.14
2018-01-12T09:01:34.770Z,1020.14
2018-01-12T09:02:00.244Z,1020.14
2018-01-12T09:02:25.705Z,1020.11
2018-01-12T09:02:51.168Z,1020.14
2018-01-12T09:03:16.643Z,1020.12
2018-01-12T09:03:42.126Z,1020.12
2018-01-12T09:04:07.638Z,1020.15
2018-01-12T09:04:33.099Z,1020.16
2018-01-12T09:04:58.571Z,1020.13
2018-01-12T09:05:24.104Z,1020.15
2018-01-12T09:05:49.596Z,1020.16
2018-01-12T09:06:15.044Z,1020.12
2018-01-12T09:06:40.516Z,1020.18
2018-01-12T09:07:06.007Z,1020.17
2018-01-12T09:07:31.534Z,1020.16
2018-01-12T09:08:45.334Z,1020.21
2018-01-12T09:09:10.892Z,1020.13
2018-01-12T09:09:36.369Z,1020.14
2018-01-12T09:10:01.858Z,1020.16
2018-01-12T09:10:27.363Z,1020.12
2018-01-12T09:10:52.868Z,1020.11
2018-01-12T09:11:18.376Z,1020.12
2018-01-12T09:11:43.887Z,1020.14
2018-01-12T09:12:09.347Z,1020.14
2018-01-12T09:12:34.814Z,1020.13
2018-01-12T09:13:33.340Z,1020.13
2018-01-12T09:13:58.838Z,1020.12
2018-01-12T09:14:24.291Z,1020.19
2018-01-12T09:14:49.778Z,1020.15
2018-01-12T09:15:58.503Z,1020.15
2018-01-12T09:16:23.982Z,1020.13
2018-01-12T09:16:49.464Z,1020.18
2018-01-12T09:17:14.971Z,1020.13
2018-01-12T09:17:40.464Z,1020.14
2018-01-12T09:18:05.915Z,1020.17
2018-01-12T09:18:31.447Z,1020.16
2018-01-12T09:18:56.899Z,1020.18
2018-01-12T09:19:22.407Z,1020.18
2018-01-12T09:19:47.915Z,1020.18
2018-01-12T09:20:13.406Z,1020.15
2018-01-12T09:20:38.901Z,1020.18
2018-01-12T09:21:04.387Z,1020.19
2018-01-12T09:21:29.864Z,1020.16
2018-01-12T09:21:55.395Z,1020.18
2018-01-12T09:22:20.883Z,1020.19
2018-01-12T09:22:46.442Z,1020.22
2018-01-12T09:23:11.924Z,1020.22
2018-01-12T09:23:37.405Z,1020.21
2018-01-12T09:24:02.914Z,1020.2
2018-01-12T09:24:28.371Z,1020.21
2018-01-12T09:24:53.908Z,1020.22
2018-01-12T09:25:19.333Z,1020.21
2018-01-12T09:25:44.824Z,1020.2
2018-01-12T09:26:10.310Z,1020.22
2018-01-12T09:26:35.814Z,1020.17
2018-01-12T09:27:01.314Z,1020.14
2018-01-12T09:27:26.827Z,1020.15
2018-01-12T09:27:52.318Z,1020.19
2018-01-12T09:28:17.778Z,1020.17
2018-01-12T09:28:43.298Z,1020.18
2018-01-12T09:29:08.786Z,1020.16
2018-01-12T09:29:34.284Z,1020.18
2018-01-12T09:29:59.785Z,1020.18
2018-01-12T09:30:25.255Z,1020.21
2018-01-12T09:30:50.763Z,1020.2
2018-01-12T09:31:16.252Z,1020.21
2018-01-12T09:31:41.741Z,1020.19
2018-01-12T09:32:07.228Z,1020.23
2018-01-12T09:32:32.752Z,1020.25
2018-01-12T09:32:58.265Z,1020.24
2018-01-12T09:33:23.793Z,1020.25
2018-01-12T09:33:49.312Z,1020.3
2018-01-12T09:34:14.782Z,1020.26
2018-01-12T09:34:40.292Z,1020.27
2018-01-12T09:35:05.803Z,1020.33
2018-01-12T09:35:31.275Z,1020.3
2018-01-12T09:35:56.748Z,1020.3
2018-01-12T09:37:00.362Z,1020.35
2018-01-12T09:37:25.864Z,1020.33
2018-01-12T09:37:51.359Z,1020.33
2018-01-12T09:38:16.838Z,1020.3
2018-01-12T09:38:42.324Z,1020.33
2018-01-12T09:39:07.828Z,1020.32
2018-01-12T09:39:33.326Z,1020.35
2018-01-12T09:39:58.856Z,1020.36
2018-01-12T09:40:24.361Z,1020.37
2018-01-12T09:40:49.861Z,1020.36
2018-01-12T09:41:15.353Z,1020.38
2018-01-12T09:41:40.846Z,1020.38
2018-01-12T09:42:06.405Z,1020.38
2018-01-12T09:42:31.907Z,1020.34
2018-01-12T09:42:57.378Z,1020.36
2018-01-12T09:43:22.912Z,1020.39
2018-01-12T09:43:48.429Z,1020.38
2018-01-12T09:44:13.901Z,1020.4
2018-01-12T09:44:39.374Z,1020.38
2018-01-12T09:45:04.854Z,1020.38
2018-01-12T09:45:30.368Z,1020.36
2018-01-12T09:45:55.874Z,1020.37
2018-01-12T09:46:21.367Z,1020.39
2018-01-12T09:46:46.880Z,1020.39
2018-01-12T09:47:12.355Z,1020.39
2018-01-12T09:47:37.857Z,1020.38
2018-01-12T09:48:03.367Z,1020.41
2018-01-12T09:48:28.819Z,1020.37
2018-01-12T09:48:54.277Z,1020.37
2018-01-12T09:49:19.768Z,1020.39
2018-01-12T09:49:45.235Z,1020.36
2018-01-12T09:50:10.808Z,1020.35
2018-01-12T09:50:36.292Z,1020.39
2018-01-12T09:51:01.784Z,1020.36
2018-01-12T09:51:27.255Z,1020.37
2018-01-12T09:51:52.758Z,1020.38
2018-01-12T09:53:01.623Z,1020.39
2018-01-12T09:53:27.119Z,1020.41
2018-01-12T09:53:52.612Z,1020.41
2018-01-12T09:54:18.096Z,1020.43
2018-01-12T09:54:43.580Z,1020.39
2018-01-12T09:55:09.105Z,1020.38
2018-01-12T09:55:34.572Z,1020.39
2018-01-12T09:56:00.058Z,1020.4
2018-01-12T09:56:25.527Z,1020.4
2018-01-12T09:56:51.029Z,1020.43
2018-01-12T09:57:16.567Z,1020.42
2018-01-12T09:57:42.149Z,1020.41
2018-01-12T09:58:07.646Z,1020.46
2018-01-12T09:58:33.137Z,1020.46
2018-01-12T09:58:58.637Z,1020.41
2018-01-12T09:59:24.152Z,1020.47
2018-01-12T09:59:49.636Z,1020.43
2018-01-12T10:00:15.120Z,1020.48
2018-01-12T10:00:40.593Z,1020.46
2018-01-12T10:01:06.104Z,1020.47
2018-01-12T10:01:31.635Z,1020.47
2018-01-12T10:01:57.104Z,1020.49
2018-01-12T10:02:22.573Z,1020.48
2018-01-12T10:02:48.069Z,1020.48
2018-01-12T10:03:13.584Z,1020.47
2018-01-12T10:03:39.080Z,1020.48
2018-01-12T10:04:04.619Z,1020.49
2018-01-12T10:04:55.608Z,1020.5
2018-01-12T10:05:21.059Z,1020.49
2018-01-12T10:05:46.553Z,1020.51
2018-01-12T10:06:12.092Z,1020.52
2018-01-12T10:06:37.630Z,1020.52
2018-01-12T10:07:36.164Z,1020.51
2018-01-12T10:08:01.660Z,1020.56
2018-01-12T10:08:27.169Z,1020.55
2018-01-12T10:08:52.650Z,1020.51
2018-01-12T10:09:18.122Z,1020.53
2018-01-12T10:09:43.602Z,1020.55
2018-01-12T10:10:09.100Z,1020.53
2018-01-12T10:10:34.583Z,1020.5
2018-01-12T10:11:00.066Z,1020.54
2018-01-12T10:11:25.578Z,1020.55
2018-01-12T10:11:51.101Z,1020.49
2018-01-12T10:12:16.587Z,1020.54
2018-01-12T10:12:42.139Z,1020.55
2018-01-12T10:13:07.653Z,1020.52
2018-01-12T10:13:33.165Z,1020.52
2018-01-12T10:13:58.653Z,1020.52
2018-01-12T10:14:24.139Z,1020.47
2018-01-12T10:14:49.600Z,1020.53
2018-01-12T10:15:15.068Z,1020.52
2018-01-12T10:15:40.589Z,1020.51
2018-01-12T10:16:50.266Z,1020.5
2018-01-12T10:17:15.759Z,1020.5
2018-01-12T10:17:41.254Z,1020.5
2018-01-12T10:18:06.756Z,1020.52
2018-01-12T10:18:32.271Z,1020.52
2018-01-12T10:18:57.737Z,1020.51
2018-01-12T10:19:23.233Z,1020.49
2018-01-12T10:19:48.726Z,1020.49
2018-01-12T10:20:14.225Z,1020.53
2018-01-12T10:21:33.152Z,1020.52
2018-01-12T10:21:58.634Z,1020.53
2018-01-12T10:22:24.111Z,1020.49
2018-01-12T10:22:49.657Z,1020.53
2018-01-12T10:23:15.135Z,1020.52
2018-01-12T10:23:40.684Z,1020.52
2018-01-12T10:24:06.175Z,1020.53
2018-01-12T10:24:31.687Z,1020.48
2018-01-12T10:24:57.164Z,1020.53
2018-01-12T10:25:22.661Z,1020.54
2018-01-12T10:25:48.136Z,1020.51
2018-01-12T10:26:13.657Z,1020.52
2018-01-12T10:27:27.418Z,1020.55
2018-01-12T10:27:52.905Z,1020.54
2018-01-12T10:28:18.393Z,1020.54
2018-01-12T10:28:43.910Z,1020.52
2018-01-12T10:29:09.429Z,1020.51
2018-01-12T10:29:34.894Z,1020.52
2018-01-12T10:30:00.371Z,1020.57
2018-01-12T10:30:25.882Z,1020.54
2018-01-12T10:30:51.382Z,1020.48
2018-01-12T10:31:16.867Z,1020.53
2018-01-12T10:31:42.355Z,1020.52
2018-01-12T10:32:07.829Z,1020.55
2018-01-12T10:32:33.333Z,1020.55
2018-01-12T10:32:58.854Z,1020.55
2018-01-12T10:33:24.356Z,1020.57
2018-01-12T10:33:49.848Z,1020.57
2018-01-12T10:34:15.350Z,1020.62
2018-01-12T10:34:40.838Z,1020.58
2018-01-12T10:35:06.357Z,1020.56
2018-01-12T10:36:25.258Z,1020.57
2018-01-12T10:36:50.772Z,1020.53
2018-01-12T10:37:16.259Z,1020.55
2018-01-12T10:37:41.751Z,1020.57